createdAt,value
2018-12-19T00:02:13.470Z,82.09
2018-12-19T00:04:47.190Z,82.13
2018-12-19T00:07:16.826Z,81.13
2018-12-19T00:09:47.805Z,81.40
2018-12-19T00:12:18.799Z,81.60
2018-12-19T00:14:49.790Z,82.00
2018-12-19T00:17:20.939Z,82.07
2018-12-19T00:19:52.160Z,82.32
2018-12-19T00:22:23.471Z,83.18
2018-12-19T00:24:56.795Z,81.87
2018-12-19T00:27:28.390Z,81.20
2018-12-19T00:29:59.675Z,82.24
2018-12-19T00:32:30.811Z,82.25
2018-12-19T00:35:04.060Z,82.31
2018-12-19T00:37:37.720Z,83.19
2018-12-19T00:40:11.630Z,81.82
2018-12-19T00:42:45.602Z,82.34
2018-12-19T00:45:17.436Z,81.84
2018-12-19T00:47:50.622Z,81.41
2018-12-19T00:50:20.307Z,82.02
2018-12-19T00:52:53.880Z,82.14
2018-12-19T00:55:25.514Z,82.22
2018-12-19T00:57:59.070Z,82.13
2018-12-19T01:00:28.891Z,81.63
2018-12-19T01:03:00.155Z,81.59
2018-12-19T01:05:31.598Z,81.74
2018-12-19T01:08:04.829Z,81.87
2018-12-19T01:10:36.623Z,82.56
2018-12-19T01:13:12.026Z,81.43
2018-12-19T01:15:46.167Z,81.46
2018-12-19T01:18:19.162Z,81.62
2018-12-19T01:20:50.150Z,82.03
2018-12-19T01:23:23.547Z,81.92
2018-12-19T01:25:55.445Z,81.82
2018-12-19T01:28:28.463Z,81.35
2018-12-19T01:31:00.347Z,82.22
2018-12-19T01:33:31.463Z,80.95
2018-12-19T01:36:03.003Z,81.96
2018-12-19T01:38:34.122Z,82.20
2018-12-19T01:41:03.427Z,82.90
2018-12-19T01:43:34.583Z,81.70
2018-12-19T01:46:08.218Z,82.45
2018-12-19T01:48:38.260Z,82.42
2018-12-19T01:51:10.216Z,82.30
2018-12-19T01:53:43.449Z,82.52
2018-12-19T01:56:17.440Z,82.82
2018-12-19T01:58:49.103Z,83.12
2018-12-19T02:01:20.344Z,83.53
2018-12-19T02:03:49.472Z,83.94
2018-12-19T02:06:23.019Z,82.96
2018-12-19T02:08:54.755Z,82.63
2018-12-19T02:11:24.094Z,82.62
2018-12-19T02:13:57.482Z,82.62
2018-12-19T02:16:28.606Z,83.12
2018-12-19T02:19:01.927Z,83.91
2018-12-19T02:21:35.884Z,83.45
2018-12-19T02:24:06.854Z,83.50
2018-12-19T02:26:37.942Z,83.76
2018-12-19T02:29:09.011Z,84.11
2018-12-19T02:31:42.412Z,85.22
2018-12-19T02:34:13.379Z,84.10
2018-12-19T02:36:47.012Z,83.90
2018-12-19T02:39:20.131Z,85.09
2018-12-19T02:41:51.110Z,84.61
2018-12-19T02:44:21.998Z,83.91
2018-12-19T02:46:51.458Z,84.70
2018-12-19T02:49:22.768Z,84.52
2018-12-19T02:51:54.186Z,84.46
2018-12-19T02:54:25.239Z,84.52
2018-12-19T02:56:58.798Z,83.62
2018-12-19T02:59:33.644Z,83.66
2018-12-19T03:02:03.642Z,84.57
2018-12-19T03:04:35.340Z,83.31
2018-12-19T03:07:04.498Z,83.44
2018-12-19T03:09:35.701Z,84.32
2018-12-19T03:12:07.158Z,84.02
2018-12-19T03:14:38.091Z,84.82
2018-12-19T03:17:11.358Z,84.84
2018-12-19T03:19:42.382Z,85.41
2018-12-19T03:22:13.360Z,84.66
2018-12-19T03:24:42.640Z,84.84
2018-12-19T03:27:13.630Z,84.37
2018-12-19T03:29:47.130Z,85.78
2018-12-19T03:32:19.080Z,85.04
2018-12-19T03:34:50.134Z,85.11
2018-12-19T03:37:21.503Z,84.91
2018-12-19T03:39:52.650Z,86.22
2018-12-19T03:42:23.890Z,86.24
2018-12-19T03:44:55.017Z,86.14
2018-12-19T03:47:28.635Z,86.03
2018-12-19T03:50:00.334Z,85.30
2018-12-19T03:52:33.951Z,86.43
2018-12-19T03:55:03.474Z,85.10
2018-12-19T03:57:35.662Z,85.61
2018-12-19T04:00:07.646Z,85.53
2018-12-19T04:02:38.880Z,86.09
2018-12-19T04:05:12.132Z,86.51
2018-12-19T04:07:43.848Z,86.51
2018-12-19T04:10:13.072Z,86.70
2018-12-19T04:12:42.234Z,86.98
2018-12-19T04:15:16.106Z,87.01
2018-12-19T04:17:49.666Z,87.65
2018-12-19T04:20:20.742Z,87.13
2018-12-19T04:22:52.060Z,86.28
2018-12-19T04:25:23.408Z,87.05
2018-12-19T04:27:55.162Z,88.06
2018-12-19T04:30:26.900Z,88.26
2018-12-19T04:32:59.147Z,87.75
2018-12-19T04:35:30.525Z,88.15
2018-12-19T04:38:03.290Z,87.42
2018-12-19T04:40:35.102Z,87.83
2018-12-19T04:43:06.963Z,87.66
2018-12-19T04:45:38.568Z,86.95
2018-12-19T04:48:09.531Z,87.02
2018-12-19T04:50:43.391Z,87.16
2018-12-19T04:53:14.946Z,87.27
2018-12-19T04:55:50.824Z,87.11
2018-12-19T04:58:23.359Z,87.02
2018-12-19T05:00:59.515Z,87.21
2018-12-19T05:03:30.604Z,87.05
2018-12-19T05:06:03.379Z,86.63
2018-12-19T05:08:35.396Z,87.16
2018-12-19T05:11:09.492Z,86.25
2018-12-19T05:13:42.257Z,87.00
2018-12-19T05:16:14.368Z,87.00
2018-12-19T05:18:46.631Z,87.97
2018-12-19T05:21:19.019Z,87.12
2018-12-19T05:23:50.715Z,86.89
2018-12-19T05:26:24.965Z,87.73
2018-12-19T05:28:59.749Z,87.81
2018-12-19T05:31:32.124Z,87.91
2018-12-19T05:34:03.529Z,87.73
2018-12-19T05:36:37.248Z,86.87
2018-12-19T05:39:11.244Z,87.50
2018-12-19T05:41:43.183Z,86.96
2018-12-19T05:44:17.639Z,86.92
2018-12-19T05:46:50.023Z,86.60
2018-12-19T05:49:22.141Z,86.96
2018-12-19T05:51:56.352Z,87.34
2018-12-19T05:54:30.124Z,86.71
2018-12-19T05:57:08.035Z,88.33
2018-12-19T05:59:42.349Z,86.94
2018-12-19T06:02:22.276Z,87.60
2018-12-19T06:04:55.362Z,87.58
2018-12-19T06:07:31.407Z,87.41
2018-12-19T06:10:05.307Z,86.76
2018-12-19T06:12:47.819Z,87.16
2018-12-19T06:18:24.573Z,88.66
2018-12-19T06:20:59.828Z,87.88
2018-12-19T06:23:36.328Z,87.74
2018-12-19T06:26:08.060Z,89.03
2018-12-19T06:28:39.647Z,88.50
2018-12-19T06:31:13.782Z,88.05
2018-12-19T06:33:45.743Z,88.62
2018-12-19T06:36:19.470Z,88.26
2018-12-19T06:39:02.232Z,88.29
2018-12-19T06:41:36.502Z,88.46
2018-12-19T06:44:10.586Z,88.50
2018-12-19T06:46:44.299Z,88.20
2018-12-19T06:49:18.518Z,87.81
2018-12-19T06:51:49.972Z,87.42
2018-12-19T06:54:24.131Z,87.68
2018-12-19T06:56:58.239Z,87.95
2018-12-19T06:59:32.834Z,87.71
2018-12-19T07:02:04.015Z,88.67
2018-12-19T07:04:37.490Z,88.09
2018-12-19T07:07:16.459Z,86.99
2018-12-19T07:10:04.572Z,86.87
2018-12-19T07:12:36.233Z,87.56
2018-12-19T07:15:07.391Z,87.22
2018-12-19T07:17:49.523Z,87.73
2018-12-19T07:20:21.859Z,87.21
2018-12-19T07:25:31.428Z,87.36
2018-12-19T07:28:03.328Z,88.65
2018-12-19T07:30:33.538Z,87.92
2018-12-19T07:33:03.282Z,87.73
2018-12-19T07:35:35.206Z,87.64
2018-12-19T07:38:07.331Z,87.40
2018-12-19T07:40:45.652Z,87.56
2018-12-19T07:43:23.936Z,87.40
2018-12-19T07:45:56.498Z,87.24
2018-12-19T07:48:28.198Z,86.82
2018-12-19T07:51:00.400Z,86.51
2018-12-19T07:53:35.434Z,86.30
2018-12-19T07:56:07.830Z,87.36
2018-12-19T07:58:42.092Z,88.25
2018-12-19T08:01:14.368Z,87.03
2018-12-19T08:03:46.167Z,86.49
2018-12-19T08:06:21.518Z,86.99
2018-12-19T08:08:54.178Z,86.11
2018-12-19T08:11:27.988Z,86.36
2018-12-19T08:13:59.497Z,86.73
2018-12-19T08:16:33.212Z,87.26
2018-12-19T08:19:06.499Z,88.12
2018-12-19T08:21:39.108Z,87.77
2018-12-19T08:24:11.226Z,88.20
2018-12-19T08:26:43.571Z,88.00
2018-12-19T08:29:13.603Z,87.18
2018-12-19T08:34:26.248Z,86.83
